sensor_id;sensor_type;location;lat;lon;timestamp;pressure;altitude;pressure_sealevel;temperature;humidity
56831;BME280;42713;42.676;23.352;2023-05-01T00:00:14;94736.88;;;13.31;57.80
56831;BME280;42713;42.676;23.352;2023-05-01T00:02:43;94747.91;;;13.28;58.54
56831;BME280;42713;42.676;23.352;2023-05-01T00:05:08;94740.00;;;13.28;58.81
56831;BME280;42713;42.676;23.352;2023-05-01T00:07:34;94743.72;;;13.32;58.34
56831;BME280;42713;42.676;23.352;2023-05-01T00:09:59;94750.81;;;13.32;58.24
56831;BME280;42713;42.676;23.352;2023-05-01T00:12:25;94746.59;;;13.36;57.98
56831;BME280;42713;42.676;23.352;2023-05-01T00:14:53;94741.59;;;13.29;58.26
56831;BME280;42713;42.676;23.352;2023-05-01T00:17:19;94747.94;;;13.33;58.03
56831;BME280;42713;42.676;23.352;2023-05-01T00:19:45;94748.47;;;13.35;58.09
56831;BME280;42713;42.676;23.352;2023-05-01T00:22:11;94754.78;;;13.34;58.25
56831;BME280;42713;42.676;23.352;2023-05-01T00:24:36;94759.75;;;13.31;58.13
56831;BME280;42713;42.676;23.352;2023-05-01T00:27:02;94744.22;;;13.29;58.61
56831;BME280;42713;42.676;23.352;2023-05-01T00:29:27;94750.28;;;13.30;58.22
56831;BME280;42713;42.676;23.352;2023-05-01T00:31:53;94745.00;;;13.24;58.55
56831;BME280;42713;42.676;23.352;2023-05-01T00:34:19;94748.94;;;13.17;58.81
56831;BME280;42713;42.676;23.352;2023-05-01T00:36:45;94756.00;;;13.16;58.94
56831;BME280;42713;42.676;23.352;2023-05-01T00:39:10;94757.00;;;13.05;58.75
56831;BME280;42713;42.676;23.352;2023-05-01T00:41:36;94752.53;;;13.00;59.26
56831;BME280;42713;42.676;23.352;2023-05-01T00:44:02;94767.69;;;12.83;60.01
56831;BME280;42713;42.676;23.352;2023-05-01T00:46:28;94768.94;;;12.75;60.44
56831;BME280;42713;42.676;23.352;2023-05-01T00:48:57;94768.94;;;12.70;60.18
56831;BME280;42713;42.676;23.352;2023-05-01T00:51:23;94768.66;;;12.71;60.74
56831;BME280;42713;42.676;23.352;2023-05-01T00:53:49;94775.78;;;12.71;61.17
56831;BME280;42713;42.676;23.352;2023-05-01T00:56:15;94775.78;;;12.71;60.76
56831;BME280;42713;42.676;23.352;2023-05-01T00:58:41;94773.84;;;12.56;60.87
56831;BME280;42713;42.676;23.352;2023-05-01T01:01:06;94771.97;;;12.51;61.24
56831;BME280;42713;42.676;23.352;2023-05-01T01:03:35;94773.22;;;12.43;61.68
56831;BME280;42713;42.676;23.352;2023-05-01T01:11:45;94782.63;;;12.34;62.42
56831;BME280;42713;42.676;23.352;2023-05-01T01:14:18;94776.81;;;12.32;62.61
56831;BME280;42713;42.676;23.352;2023-05-01T01:16:59;94787.66;;;12.41;62.02
56831;BME280;42713;42.676;23.352;2023-05-01T01:22:15;94789.56;;;12.51;62.61
56831;BME280;42713;42.676;23.352;2023-05-01T01:35:33;94794.66;;;12.68;62.57
56831;BME280;42713;42.676;23.352;2023-05-01T01:38:08;94793.34;;;12.65;63.17
56831;BME280;42713;42.676;23.352;2023-05-01T01:40:44;94798.06;;;12.63;63.01
56831;BME280;42713;42.676;23.352;2023-05-01T01:43:16;94798.31;;;12.61;63.10
56831;BME280;42713;42.676;23.352;2023-05-01T01:45:46;94785.88;;;12.52;64.02
56831;BME280;42713;42.676;23.352;2023-05-01T01:48:16;94785.06;;;12.46;63.91
56831;BME280;42713;42.676;23.352;2023-05-01T01:50:46;94791.66;;;12.49;63.71
56831;BME280;42713;42.676;23.352;2023-05-01T01:53:15;94787.69;;;12.46;63.79
56831;BME280;42713;42.676;23.352;2023-05-01T01:55:43;94784.28;;;12.45;64.09
56831;BME280;42713;42.676;23.352;2023-05-01T01:58:10;94776.91;;;12.42;64.53
56831;BME280;42713;42.676;23.352;2023-05-01T02:00:39;94781.09;;;12.43;64.34
56831;BME280;42713;42.676;23.352;2023-05-01T02:03:08;94785.81;;;12.41;64.82
56831;BME280;42713;42.676;23.352;2023-05-01T02:05:35;94780.53;;;12.36;65.59
56831;BME280;42713;42.676;23.352;2023-05-01T02:08:03;94791.53;;;12.33;65.89
56831;BME280;42713;42.676;23.352;2023-05-01T02:10:30;94784.16;;;12.30;66.22
56831;BME280;42713;42.676;23.352;2023-05-01T02:12:57;94791.00;;;12.31;65.56
56831;BME280;42713;42.676;23.352;2023-05-01T02:15:24;94781.78;;;12.28;65.44
56831;BME280;42713;42.676;23.352;2023-05-01T02:17:52;94790.72;;;12.27;65.04
56831;BME280;42713;42.676;23.352;2023-05-01T02:20:19;94785.97;;;12.24;65.18
56831;BME280;42713;42.676;23.352;2023-05-01T02:22:46;94782.25;;;12.20;65.90
56831;BME280;42713;42.676;23.352;2023-05-01T02:25:13;94779.88;;;12.19;66.23
56831;BME280;42713;42.676;23.352;2023-05-01T02:27:46;94788.81;;;12.18;66.04
56831;BME280;42713;42.676;23.352;2023-05-01T02:30:13;94779.53;;;12.10;66.69
56831;BME280;42713;42.676;23.352;2023-05-01T02:32:38;94784.53;;;12.11;66.76
56831;BME280;42713;42.676;23.352;2023-05-01T02:35:04;94779.00;;;12.08;67.04
56831;BME280;42713;42.676;23.352;2023-05-01T02:37:30;94785.53;;;12.05;66.18
56831;BME280;42713;42.676;23.352;2023-05-01T02:39:56;94787.88;;;12.02;66.28
56831;BME280;42713;42.676;23.352;2023-05-01T02:42:24;94784.31;;;11.91;66.87
56831;BME280;42713;42.676;23.352;2023-05-01T02:44:55;94783.19;;;11.81;67.05
56831;BME280;42713;42.676;23.352;2023-05-01T02:47:22;94784.75;;;11.77;67.73
56831;BME280;42713;42.676;23.352;2023-05-01T02:49:50;94779.13;;;11.68;68.01
56831;BME280;42713;42.676;23.352;2023-05-01T02:52:17;94778.69;;;11.49;68.63
56831;BME280;42713;42.676;23.352;2023-05-01T02:54:44;94782.78;;;11.40;68.14
56831;BME280;42713;42.676;23.352;2023-05-01T02:57:10;94794.78;;;11.36;68.27
56831;BME280;42713;42.676;23.352;2023-05-01T02:59:36;94787.66;;;11.31;68.79
56831;BME280;42713;42.676;23.352;2023-05-01T03:02:02;94791.31;;;11.30;68.93
56831;BME280;42713;42.676;23.352;2023-05-01T03:04:28;94792.66;;;11.33;69.51
56831;BME280;42713;42.676;23.352;2023-05-01T03:06:53;94797.66;;;11.34;68.59
56831;BME280;42713;42.676;23.352;2023-05-01T03:09:19;94805.47;;;11.29;68.93
56831;BME280;42713;42.676;23.352;2023-05-01T03:11:45;94805.34;;;11.19;70.14
56831;BME280;42713;42.676;23.352;2023-05-01T03:14:11;94805.59;;;11.17;69.54
56831;BME280;42713;42.676;23.352;2023-05-01T03:16:36;94803.22;;;11.16;69.26
56831;BME280;42713;42.676;23.352;2023-05-01T03:19:02;94804.31;;;11.20;68.76
56831;BME280;42713;42.676;23.352;2023-05-01T03:21:27;94804.56;;;11.18;69.34
56831;BME280;42713;42.676;23.352;2023-05-01T03:23:53;94806.38;;;11.18;68.07
56831;BME280;42713;42.676;23.352;2023-05-01T03:26:19;94809.81;;;11.18;68.60
56831;BME280;42713;42.676;23.352;2023-05-01T03:28:44;94809.25;;;11.16;68.53
56831;BME280;42713;42.676;23.352;2023-05-01T03:31:11;94813.94;;;11.14;69.36
56831;BME280;42713;42.676;23.352;2023-05-01T03:33:36;94812.84;;;11.10;68.83
56831;BME280;42713;42.676;23.352;2023-05-01T03:36:03;94814.91;;;11.08;68.38
56831;BME280;42713;42.676;23.352;2023-05-01T03:38:30;94816.19;;;11.05;69.01
56831;BME280;42713;42.676;23.352;2023-05-01T03:40:56;94821.97;;;11.08;68.67
56831;BME280;42713;42.676;23.352;2023-05-01T03:43:22;94826.44;;;11.07;69.01
56831;BME280;42713;42.676;23.352;2023-05-01T03:45:49;94826.91;;;11.04;68.66
56831;BME280;42713;42.676;23.352;2023-05-01T03:48:15;94825.81;;;11.00;69.09
56831;BME280;42713;42.676;23.352;2023-05-01T03:50:40;94831.53;;;10.97;69.12
56831;BME280;42713;42.676;23.352;2023-05-01T03:53:06;94820.75;;;10.93;68.59
56831;BME280;42713;42.676;23.352;2023-05-01T03:55:32;94828.28;;;10.89;69.85
56831;BME280;42713;42.676;23.352;2023-05-01T03:57:57;94828.38;;;10.78;70.81
56831;BME280;42713;42.676;23.352;2023-05-01T04:00:23;94842.34;;;10.83;70.58
56831;BME280;42713;42.676;23.352;2023-05-01T04:02:49;94843.00;;;10.90;70.70
56831;BME280;42713;42.676;23.352;2023-05-01T04:05:15;94840.38;;;10.90;70.95
56831;BME280;42713;42.676;23.352;2023-05-01T04:07:40;94835.66;;;10.93;70.93
56831;BME280;42713;42.676;23.352;2023-05-01T04:10:06;94837.34;;;10.99;70.16
56831;BME280;42713;42.676;23.352;2023-05-01T04:12:34;94837.81;;;10.96;70.63
56831;BME280;42713;42.676;23.352;2023-05-01T04:14:59;94844.88;;;10.95;71.01
56831;BME280;42713;42.676;23.352;2023-05-01T04:17:25;94839.66;;;10.95;70.30
56831;BME280;42713;42.676;23.352;2023-05-01T04:19:51;94838.63;;;10.96;71.31
56831;BME280;42713;42.676;23.352;2023-05-01T04:22:17;94838.38;;;10.98;71.25
56831;BME280;42713;42.676;23.352;2023-05-01T04:24:43;94842.28;;;10.95;70.96
56831;BME280;42713;42.676;23.352;2023-05-01T04:27:09;94841.53;;;11.00;71.07
56831;BME280;42713;42.676;23.352;2023-05-01T04:29:35;94843.75;;;11.08;71.31
56831;BME280;42713;42.676;23.352;2023-05-01T04:32:01;94840.31;;;11.08;71.26
56831;BME280;42713;42.676;23.352;2023-05-01T04:34:27;94844.34;;;11.15;71.06
56831;BME280;42713;42.676;23.352;2023-05-01T04:36:54;94845.22;;;11.21;70.78
56831;BME280;42713;42.676;23.352;2023-05-01T04:39:22;94850.22;;;11.23;70.85
56831;BME280;42713;42.676;23.352;2023-05-01T04:41:48;94855.28;;;11.29;70.43
56831;BME280;42713;42.676;23.352;2023-05-01T04:44:13;94857.16;;;11.34;69.79
56831;BME280;42713;42.676;23.352;2023-05-01T04:46:39;94859.38;;;11.42;70.69
56831;BME280;42713;42.676;23.352;2023-05-01T04:49:05;94855.22;;;11.46;69.60
56831;BME280;42713;42.676;23.352;2023-05-01T04:51:30;94857.06;;;11.46;69.90
56831;BME280;42713;42.676;23.352;2023-05-01T04:53:56;94858.97;;;11.50;70.12
56831;BME280;42713;42.676;23.352;2023-05-01T04:56:24;94858.47;;;11.53;70.13
56831;BME280;42713;42.676;23.352;2023-05-01T04:58:49;94866.97;;;11.61;69.67
56831;BME280;42713;42.676;23.352;2023-05-01T05:01:15;94868.03;;;11.65;69.76
56831;BME280;42713;42.676;23.352;2023-05-01T05:03:40;94862.88;;;11.70;70.05
56831;BME280;42713;42.676;23.352;2023-05-01T05:06:07;94871.56;;;11.76;69.95
56831;BME280;42713;42.676;23.352;2023-05-01T05:08:32;94869.50;;;11.78;70.22
56831;BME280;42713;42.676;23.352;2023-05-01T05:10:58;94877.19;;;11.84;69.23
56831;BME280;42713;42.676;23.352;2023-05-01T05:13:27;94877.19;;;11.84;69.19
56831;BME280;42713;42.676;23.352;2023-05-01T05:15:52;94884.63;;;11.93;68.85
56831;BME280;42713;42.676;23.352;2023-05-01T05:18:18;94881.50;;;11.96;68.57
56831;BME280;42713;42.676;23.352;2023-05-01T05:20:46;94887.84;;;12.00;68.30
56831;BME280;42713;42.676;23.352;2023-05-01T05:23:12;94890.81;;;12.04;68.53
56831;BME280;42713;42.676;23.352;2023-05-01T05:25:37;94887.44;;;12.08;68.66
56831;BME280;42713;42.676;23.352;2023-05-01T05:28:05;94886.94;;;12.11;68.42
56831;BME280;42713;42.676;23.352;2023-05-01T05:30:31;94892.47;;;12.15;67.48
56831;BME280;42713;42.676;23.352;2023-05-01T05:32:56;94892.72;;;12.13;67.56
56831;BME280;42713;42.676;23.352;2023-05-01T05:35:22;94894.56;;;12.13;67.63
56831;BME280;42713;42.676;23.352;2023-05-01T05:37:47;94895.22;;;11.98;68.13
56831;BME280;42713;42.676;23.352;2023-05-01T05:40:13;94895.50;;;12.02;67.85
56831;BME280;42713;42.676;23.352;2023-05-01T05:42:39;94901.84;;;12.06;67.31
56831;BME280;42713;42.676;23.352;2023-05-01T05:45:05;94890.00;;;12.03;68.06
56831;BME280;42713;42.676;23.352;2023-05-01T05:47:31;94901.31;;;12.04;67.55
56831;BME280;42713;42.676;23.352;2023-05-01T05:49:56;94899.50;;;11.87;67.72
56831;BME280;42713;42.676;23.352;2023-05-01T05:52:22;94900.44;;;11.76;68.56
56831;BME280;42713;42.676;23.352;2023-05-01T05:54:47;94908.28;;;11.76;68.61
56831;BME280;42713;42.676;23.352;2023-05-01T05:57:13;94914.97;;;11.83;69.09
56831;BME280;42713;42.676;23.352;2023-05-01T05:59:39;94911.91;;;11.92;69.09
56831;BME280;42713;42.676;23.352;2023-05-01T06:02:04;94912.94;;;11.91;68.88
56831;BME280;42713;42.676;23.352;2023-05-01T06:04:30;94913.47;;;11.93;68.91
56831;BME280;42713;42.676;23.352;2023-05-01T06:06:55;94915.06;;;11.94;68.88
56831;BME280;42713;42.676;23.352;2023-05-01T06:09:22;94914.38;;;11.98;69.10
56831;BME280;42713;42.676;23.352;2023-05-01T06:11:47;94918.44;;;12.11;68.98
56831;BME280;42713;42.676;23.352;2023-05-01T06:14:13;94910.84;;;12.15;68.29
56831;BME280;42713;42.676;23.352;2023-05-01T06:16:40;94917.22;;;12.19;68.39
56831;BME280;42713;42.676;23.352;2023-05-01T06:19:05;94917.50;;;12.23;67.87
56831;BME280;42713;42.676;23.352;2023-05-01T06:21:32;94918.09;;;12.30;67.72
56831;BME280;42713;42.676;23.352;2023-05-01T06:23:58;94916.03;;;12.32;69.89
56831;BME280;42713;42.676;23.352;2023-05-01T06:26:23;94919.03;;;12.46;69.31
56831;BME280;42713;42.676;23.352;2023-05-01T06:28:50;94920.44;;;12.54;67.01
56831;BME280;42713;42.676;23.352;2023-05-01T06:31:15;94918.06;;;12.52;66.80
56831;BME280;42713;42.676;23.352;2023-05-01T06:33:41;94921.53;;;12.58;67.11
56831;BME280;42713;42.676;23.352;2023-05-01T06:36:06;94913.13;;;12.61;66.50
56831;BME280;42713;42.676;23.352;2023-05-01T06:38:32;94925.88;;;12.74;66.86
56831;BME280;42713;42.676;23.352;2023-05-01T06:40:58;94916.72;;;12.82;66.64
56831;BME280;42713;42.676;23.352;2023-05-01T06:43:23;94918.13;;;12.95;67.12
56831;BME280;42713;42.676;23.352;2023-05-01T06:45:58;94919.22;;;12.99;65.96
56831;BME280;42713;42.676;23.352;2023-05-01T06:48:23;94917.94;;;13.07;66.67
56831;BME280;42713;42.676;23.352;2023-05-01T06:50:49;94919.03;;;13.11;67.01
56831;BME280;42713;42.676;23.352;2023-05-01T06:53:15;94917.00;;;13.23;69.07
56831;BME280;42713;42.676;23.352;2023-05-01T06:55:41;94915.19;;;13.24;65.95
56831;BME280;42713;42.676;23.352;2023-05-01T06:58:08;94922.31;;;13.29;65.61
56831;BME280;42713;42.676;23.352;2023-05-01T07:00:33;94924.44;;;13.32;65.00
56831;BME280;42713;42.676;23.352;2023-05-01T07:02:59;94926.00;;;13.33;65.20
56831;BME280;42713;42.676;23.352;2023-05-01T07:05:25;94922.59;;;13.37;66.88
56831;BME280;42713;42.676;23.352;2023-05-01T07:07:51;94932.41;;;13.42;65.01
56831;BME280;42713;42.676;23.352;2023-05-01T07:10:17;94925.22;;;13.37;65.42
56831;BME280;42713;42.676;23.352;2023-05-01T07:12:42;94928.72;;;13.43;66.99
56831;BME280;42713;42.676;23.352;2023-05-01T07:15:08;94931.13;;;13.50;67.56
56831;BME280;42713;42.676;23.352;2023-05-01T07:17:34;94930.63;;;13.53;67.41
56831;BME280;42713;42.676;23.352;2023-05-01T07:20:00;94934.06;;;13.59;68.21
56831;BME280;42713;42.676;23.352;2023-05-01T07:22:26;94934.34;;;13.62;66.45
56831;BME280;42713;42.676;23.352;2023-05-01T07:24:53;94936.72;;;13.64;66.59
56831;BME280;42713;42.676;23.352;2023-05-01T07:27:18;94935.44;;;13.72;67.01
56831;BME280;42713;42.676;23.352;2023-05-01T07:29:44;94930.72;;;13.74;67.23
56831;BME280;42713;42.676;23.352;2023-05-01T07:32:10;94934.44;;;13.83;65.97
56831;BME280;42713;42.676;23.352;2023-05-01T07:34:35;94928.69;;;13.86;67.10
56831;BME280;42713;42.676;23.352;2023-05-01T07:37:01;94927.91;;;13.91;67.81
56831;BME280;42713;42.676;23.352;2023-05-01T07:39:29;94928.69;;;13.96;66.70
56831;BME280;42713;42.676;23.352;2023-05-01T07:41:56;94926.88;;;14.02;65.26
56831;BME280;42713;42.676;23.352;2023-05-01T07:44:22;94927.66;;;13.97;64.18
56831;BME280;42713;42.676;23.352;2023-05-01T07:46:48;94928.69;;;13.96;65.43
56831;BME280;42713;42.676;23.352;2023-05-01T07:49:13;94923.47;;;14.07;67.37
56831;BME280;42713;42.676;23.352;2023-05-01T07:51:39;94928.75;;;14.12;67.59
56831;BME280;42713;42.676;23.352;2023-05-01T07:54:04;94924.03;;;14.19;67.44
56831;BME280;42713;42.676;23.352;2023-05-01T07:56:30;94931.19;;;14.29;66.63
56831;BME280;42713;42.676;23.352;2023-05-01T07:58:56;94926.97;;;14.33;67.10
56831;BME280;42713;42.676;23.352;2023-05-01T08:01:22;94933.81;;;14.34;65.61
56831;BME280;42713;42.676;23.352;2023-05-01T08:03:47;94932.53;;;14.42;67.13
56831;BME280;42713;42.676;23.352;2023-05-01T08:06:13;94926.22;;;14.53;68.72
56831;BME280;42713;42.676;23.352;2023-05-01T08:08:39;94928.06;;;14.58;67.14
56831;BME280;42713;42.676;23.352;2023-05-01T08:11:04;94930.19;;;14.66;66.08
56831;BME280;42713;42.676;23.352;2023-05-01T08:13:30;94919.66;;;14.71;65.77
56831;BME280;42713;42.676;23.352;2023-05-01T08:15:59;94928.34;;;14.77;65.61
56831;BME280;42713;42.676;23.352;2023-05-01T08:18:25;94919.41;;;14.78;61.19
56831;BME280;42713;42.676;23.352;2023-05-01T08:20:51;94919.66;;;14.76;63.08
56831;BME280;42713;42.676;23.352;2023-05-01T08:23:16;94925.22;;;14.80;64.57
56831;BME280;42713;42.676;23.352;2023-05-01T08:25:42;94922.81;;;14.84;64.31
56831;BME280;42713;42.676;23.352;2023-05-01T08:28:09;94924.41;;;14.85;64.95
56831;BME280;42713;42.676;23.352;2023-05-01T08:30:35;94922.06;;;14.93;65.02
56831;BME280;42713;42.676;23.352;2023-05-01T08:33:01;94920.44;;;14.98;64.47
56831;BME280;42713;42.676;23.352;2023-05-01T08:35:26;94926.00;;;15.06;62.42
56831;BME280;42713;42.676;23.352;2023-05-01T08:37:52;94924.16;;;15.12;62.90
56831;BME280;42713;42.676;23.352;2023-05-01T08:40:18;94917.53;;;15.15;61.45
56831;BME280;42713;42.676;23.352;2023-05-01T08:42:43;94921.22;;;15.24;61.70
56831;BME280;42713;42.676;23.352;2023-05-01T08:45:09;94917.25;;;15.27;60.03
56831;BME280;42713;42.676;23.352;2023-05-01T08:47:39;94924.38;;;15.31;58.51
56831;BME280;42713;42.676;23.352;2023-05-01T08:50:09;94922.50;;;15.37;59.93
56831;BME280;42713;42.676;23.352;2023-05-01T08:52:42;94919.31;;;15.45;60.38
56831;BME280;42713;42.676;23.352;2023-05-01T08:55:12;94917.47;;;15.51;59.94
56831;BME280;42713;42.676;23.352;2023-05-01T08:57:43;94914.81;;;15.56;58.01
56831;BME280;42713;42.676;23.352;2023-05-01T09:00:21;94912.97;;;15.62;59.88
56831;BME280;42713;42.676;23.352;2023-05-01T09:02:50;94907.94;;;15.65;57.92
56831;BME280;42713;42.676;23.352;2023-05-01T09:05:16;94917.16;;;15.68;58.61
56831;BME280;42713;42.676;23.352;2023-05-01T09:07:44;94920.31;;;15.70;58.56
56831;BME280;42713;42.676;23.352;2023-05-01T09:10:12;94913.19;;;15.76;57.73
56831;BME280;42713;42.676;23.352;2023-05-01T09:12:39;94912.94;;;15.72;58.44
56831;BME280;42713;42.676;23.352;2023-05-01T09:15:06;94905.75;;;15.78;58.10
56831;BME280;42713;42.676;23.352;2023-05-01T09:17:33;94901.81;;;15.85;58.56
56831;BME280;42713;42.676;23.352;2023-05-01T09:20:01;94903.63;;;15.90;56.62
56831;BME280;42713;42.676;23.352;2023-05-01T09:22:30;94919.97;;;15.97;57.13
56831;BME280;42713;42.676;23.352;2023-05-01T09:24:56;94909.91;;;16.05;56.14
56831;BME280;42713;42.676;23.352;2023-05-01T09:27:22;94909.88;;;16.10;56.20
56831;BME280;42713;42.676;23.352;2023-05-01T09:29:47;94915.94;;;16.15;57.14
56831;BME280;42713;42.676;23.352;2023-05-01T09:32:18;94915.09;;;16.20;56.70
56831;BME280;42713;42.676;23.352;2023-05-01T09:34:46;94919.34;;;16.21;54.63
56831;BME280;42713;42.676;23.352;2023-05-01T09:37:32;94914.53;;;16.28;55.11
56831;BME280;42713;42.676;23.352;2023-05-01T09:40:06;94907.88;;;16.36;55.83
56831;BME280;42713;42.676;23.352;2023-05-01T09:42:54;94905.25;;;16.36;54.25
56831;BME280;42713;42.676;23.352;2023-05-01T09:45:22;94907.09;;;16.36;54.19
56831;BME280;42713;42.676;23.352;2023-05-01T09:47:49;94907.84;;;16.41;56.05
56831;BME280;42713;42.676;23.352;2023-05-01T09:50:31;94911.00;;;16.43;57.71
56831;BME280;42713;42.676;23.352;2023-05-01T09:53:00;94899.84;;;16.52;57.80
56831;BME280;42713;42.676;23.352;2023-05-01T09:55:25;94900.28;;;16.69;57.72
56831;BME280;42713;42.676;23.352;2023-05-01T09:57:51;94899.81;;;16.91;55.72
56831;BME280;42713;42.676;23.352;2023-05-01T10:00:17;94891.84;;;16.96;55.62
56831;BME280;42713;42.676;23.352;2023-05-01T10:02:45;94890.94;;;17.11;56.63
56831;BME280;42713;42.676;23.352;2023-05-01T10:05:12;94901.72;;;17.20;55.77
56831;BME280;42713;42.676;23.352;2023-05-01T10:07:38;94893.22;;;17.23;54.32
56831;BME280;42713;42.676;23.352;2023-05-01T10:10:20;94891.03;;;17.31;54.59
56831;BME280;42713;42.676;23.352;2023-05-01T10:12:47;94884.03;;;17.40;52.49
56831;BME280;42713;42.676;23.352;2023-05-01T10:15:13;94896.47;;;17.39;54.19
56831;BME280;42713;42.676;23.352;2023-05-01T10:17:40;94884.28;;;17.43;52.68
56831;BME280;42713;42.676;23.352;2023-05-01T10:20:07;94873.97;;;17.42;52.53
56831;BME280;42713;42.676;23.352;2023-05-01T10:22:34;94886.28;;;17.52;52.41
56831;BME280;42713;42.676;23.352;2023-05-01T10:25:00;94879.63;;;17.54;50.78
56831;BME280;42713;42.676;23.352;2023-05-01T10:27:27;94882.53;;;17.58;51.29
56831;BME280;42713;42.676;23.352;2023-05-01T10:29:53;94886.03;;;17.53;49.27
56831;BME280;42713;42.676;23.352;2023-05-01T10:32:19;94876.66;;;17.61;49.85
56831;BME280;42713;42.676;23.352;2023-05-01T10:34:56;94877.78;;;17.55;49.57
56831;BME280;42713;42.676;23.352;2023-05-01T10:37:46;94876.66;;;17.61;51.41
56831;BME280;42713;42.676;23.352;2023-05-01T10:45:37;94871.63;;;17.84;48.52
56831;BME280;42713;42.676;23.352;2023-05-01T10:48:03;94873.44;;;18.08;48.57
56831;BME280;42713;42.676;23.352;2023-05-01T10:50:29;94865.66;;;18.16;46.05
56831;BME280;42713;42.676;23.352;2023-05-01T10:55:45;94868.03;;;18.37;46.62
56831;BME280;42713;42.676;23.352;2023-05-01T10:58:11;94878.34;;;18.39;46.84
56831;BME280;42713;42.676;23.352;2023-05-01T11:00:39;94873.03;;;18.39;46.88
56831;BME280;42713;42.676;23.352;2023-05-01T11:08:35;94877.63;;;18.33;47.61
56831;BME280;42713;42.676;23.352;2023-05-01T11:14:02;94873.91;;;18.53;46.48
56831;BME280;42713;42.676;23.352;2023-05-01T11:21:37;94873.78;;;19.10;43.62
56831;BME280;42713;42.676;23.352;2023-05-01T11:24:08;94865.06;;;19.38;44.53
56831;BME280;42713;42.676;23.352;2023-05-01T11:26:41;94866.56;;;19.58;43.93
56831;BME280;42713;42.676;23.352;2023-05-01T11:29:08;94870.09;;;19.81;42.81
56831;BME280;42713;42.676;23.352;2023-05-01T11:31:37;94870.28;;;19.99;43.09
56831;BME280;42713;42.676;23.352;2023-05-01T11:34:03;94871.28;;;20.03;42.37
56831;BME280;42713;42.676;23.352;2023-05-01T11:36:49;94863.28;;;20.03;42.37
56831;BME280;42713;42.676;23.352;2023-05-01T11:39:15;94867.22;;;20.05;42.59
56831;BME280;42713;42.676;23.352;2023-05-01T11:41:45;94860.13;;;20.01;40.78
56831;BME280;42713;42.676;23.352;2023-05-01T11:44:13;94854.13;;;19.95;40.91
56831;BME280;42713;42.676;23.352;2023-05-01T11:46:39;94864.69;;;19.86;41.84
56831;BME280;42713;42.676;23.352;2023-05-01T11:49:04;94866.94;;;19.79;41.79
56831;BME280;42713;42.676;23.352;2023-05-01T11:51:30;94863.19;;;19.66;41.34
56831;BME280;42713;42.676;23.352;2023-05-01T11:54:16;94853.94;;;19.78;41.50
56831;BME280;42713;42.676;23.352;2023-05-01T11:56:42;94862.50;;;19.88;41.24
56831;BME280;42713;42.676;23.352;2023-05-01T11:59:13;94863.56;;;20.01;40.88
56831;BME280;42713;42.676;23.352;2023-05-01T12:01:45;94867.22;;;20.05;40.72
56831;BME280;42713;42.676;23.352;2023-05-01T12:04:21;94859.63;;;20.13;40.78
56831;BME280;42713;42.676;23.352;2023-05-01T12:06:47;94869.47;;;20.12;39.91
56831;BME280;42713;42.676;23.352;2023-05-01T12:09:17;94869.16;;;20.14;39.40
56831;BME280;42713;42.676;23.352;2023-05-01T12:11:47;94868.56;;;20.17;39.38
56831;BME280;42713;42.676;23.352;2023-05-01T12:14:14;94881.84;;;20.31;38.74
56831;BME280;42713;42.676;23.352;2023-05-01T12:16:40;94882.50;;;20.36;38.24
56831;BME280;42713;42.676;23.352;2023-05-01T12:19:07;94882.69;;;20.40;37.90
56831;BME280;42713;42.676;23.352;2023-05-01T12:21:33;94883.84;;;20.48;37.51
56831;BME280;42713;42.676;23.352;2023-05-01T12:24:10;94882.75;;;20.49;37.87
56831;BME280;42713;42.676;23.352;2023-05-01T12:26:36;94882.50;;;20.36;36.75
56831;BME280;42713;42.676;23.352;2023-05-01T12:29:05;94881.44;;;20.37;37.41
56831;BME280;42713;42.676;23.352;2023-05-01T12:31:32;94895.50;;;20.38;37.17
56831;BME280;42713;42.676;23.352;2023-05-01T12:34:06;94888.91;;;20.35;37.12
56831;BME280;42713;42.676;23.352;2023-05-01T12:36:33;94890.28;;;20.33;37.46
56831;BME280;42713;42.676;23.352;2023-05-01T12:39:07;94879.59;;;20.24;37.58
56831;BME280;42713;42.676;23.352;2023-05-01T12:41:46;94887.94;;;20.31;38.19
56831;BME280;42713;42.676;23.352;2023-05-01T12:44:23;94888.28;;;20.38;39.72
56831;BME280;42713;42.676;23.352;2023-05-01T12:46:53;94892.88;;;20.61;39.79
56831;BME280;42713;42.676;23.352;2023-05-01T12:49:19;94883.22;;;20.88;38.87
56831;BME280;42713;42.676;23.352;2023-05-01T12:51:49;94885.28;;;21.22;38.96
56831;BME280;42713;42.676;23.352;2023-05-01T12:54:32;94887.75;;;21.50;38.48
56831;BME280;42713;42.676;23.352;2023-05-01T12:57:10;94877.06;;;21.82;37.69
56831;BME280;42713;42.676;23.352;2023-05-01T12:59:44;94875.06;;;22.05;37.74
56831;BME280;42713;42.676;23.352;2023-05-01T13:02:14;94872.44;;;22.22;37.61
56831;BME280;42713;42.676;23.352;2023-05-01T13:04:42;94870.44;;;22.46;36.82
56831;BME280;42713;42.676;23.352;2023-05-01T13:07:15;94865.25;;;22.76;36.68
56831;BME280;42713;42.676;23.352;2023-05-01T13:09:55;94874.00;;;22.94;36.56
56831;BME280;42713;42.676;23.352;2023-05-01T13:12:25;94872.56;;;23.14;36.30
56831;BME280;42713;42.676;23.352;2023-05-01T13:14:51;94877.31;;;23.47;36.53
56831;BME280;42713;42.676;23.352;2023-05-01T13:17:27;94876.31;;;23.69;34.73
56831;BME280;42713;42.676;23.352;2023-05-01T13:22:38;94876.81;;;24.22;33.69
56831;BME280;42713;42.676;23.352;2023-05-01T13:25:23;94885.22;;;24.54;33.35
56831;BME280;42713;42.676;23.352;2023-05-01T13:27:50;94887.13;;;24.75;33.18
56831;BME280;42713;42.676;23.352;2023-05-01T13:30:29;94888.25;;;25.08;31.62
56831;BME280;42713;42.676;23.352;2023-05-01T13:32:55;94886.28;;;25.29;32.02
56831;BME280;42713;42.676;23.352;2023-05-01T13:35:25;94890.25;;;25.44;31.46